sensor_id;sensor_type;location;lat;lon;timestamp;pressure;altitude;pressure_sealevel;temperature;humidity
7836;BME280;3963;42.658;23.298;2023-01-29T00:01:13;58095.81;;;-0.23;100.00
7836;BME280;3963;42.658;23.298;2023-01-29T00:03:40;58154.09;;;-0.42;100.00
7836;BME280;3963;42.658;23.298;2023-01-29T00:06:08;58144.50;;;-0.13;100.00
7836;BME280;3963;42.658;23.298;2023-01-29T00:08:36;58097.91;;;-0.21;100.00
7836;BME280;3963;42.658;23.298;2023-01-29T00:11:06;58130.19;;;-0.14;100.00
7836;BME280;3963;42.658;23.298;2023-01-29T00:13:33;58149.13;;;-0.11;100.00
7836;BME280;3963;42.658;23.298;2023-01-29T00:16:01;58112.81;;;-0.16;100.00
7836;BME280;3963;42.658;23.298;2023-01-29T00:18:28;58139.47;;;-0.25;100.00
7836;BME280;3963;42.658;23.298;2023-01-29T00:20:55;58145.09;;;-0.24;100.00
7836;BME280;3963;42.658;23.298;2023-01-29T00:23:22;58109.41;;;-0.27;100.00
7836;BME280;3963;42.658;23.298;2023-01-29T00:25:50;58117.91;;;-0.31;100.00
7836;BME280;3963;42.658;23.298;2023-01-29T00:28:17;58152.44;;;-0.17;100.00
7836;BME280;3963;42.658;23.298;2023-01-29T00:30:44;58104.84;;;-0.26;100.00
7836;BME280;3963;42.658;23.298;2023-01-29T00:33:11;58150.69;;;-0.24;100.00
7836;BME280;3963;42.658;23.298;2023-01-29T00:35:39;58132.09;;;-0.17;100.00
7836;BME280;3963;42.658;23.298;2023-01-29T00:38:06;58138.09;;;-0.21;100.00
7836;BME280;3963;42.658;23.298;2023-01-29T00:40:36;58135.44;;;-0.24;100.00
7836;BME280;3963;42.658;23.298;2023-01-29T00:43:18;58168.78;;;-0.16;100.00
7836;BME280;3963;42.658;23.298;2023-01-29T00:46:03;58139.81;;;-0.29;100.00
7836;BME280;3963;42.658;23.298;2023-01-29T00:48:31;58099.03;;;-0.46;100.00
7836;BME280;3963;42.658;23.298;2023-01-29T00:50:57;58110.19;;;-0.48;100.00
7836;BME280;3963;42.658;23.298;2023-01-29T00:53:24;58137.00;;;-0.51;100.00
7836;BME280;3963;42.658;23.298;2023-01-29T00:55:51;58095.81;;;-0.37;100.00
7836;BME280;3963;42.658;23.298;2023-01-29T00:58:19;58175.94;;;-0.29;100.00
7836;BME280;3963;42.658;23.298;2023-01-29T01:00:53;58156.50;;;-0.18;100.00
7836;BME280;3963;42.658;23.298;2023-01-29T01:03:20;58133.69;;;-0.30;100.00
7836;BME280;3963;42.658;23.298;2023-01-29T01:05:46;58090.47;;;-0.45;100.00
7836;BME280;3963;42.658;23.298;2023-01-29T01:08:13;58103.06;;;-0.47;100.00
7836;BME280;3963;42.658;23.298;2023-01-29T01:10:59;58132.94;;;-0.50;100.00
7836;BME280;3963;42.658;23.298;2023-01-29T01:13:27;58077.66;;;-0.62;100.00
7836;BME280;3963;42.658;23.298;2023-01-29T01:15:54;58102.72;;;-0.43;100.00
7836;BME280;3963;42.658;23.298;2023-01-29T01:18:21;58132.97;;;-0.36;100.00
7836;BME280;3963;42.658;23.298;2023-01-29T01:20:48;58109.31;;;-0.29;100.00
7836;BME280;3963;42.658;23.298;2023-01-29T01:23:17;58153.84;;;-0.35;100.00
7836;BME280;3963;42.658;23.298;2023-01-29T01:25:43;58152.88;;;-0.34;100.00
7836;BME280;3963;42.658;23.298;2023-01-29T01:28:11;58133.69;;;-0.30;100.00
7836;BME280;3963;42.658;23.298;2023-01-29T01:30:40;58126.75;;;-0.39;100.00
7836;BME280;3963;42.658;23.298;2023-01-29T01:33:07;58153.84;;;-0.35;100.00
7836;BME280;3963;42.658;23.298;2023-01-29T01:35:33;58132.47;;;-0.36;100.00
7836;BME280;3963;42.658;23.298;2023-01-29T01:38:00;58144.81;;;-0.32;100.00
7836;BME280;3963;42.658;23.298;2023-01-29T01:40:27;58130.50;;;-0.48;100.00
7836;BME280;3963;42.658;23.298;2023-01-29T01:42:55;58102.47;;;-0.36;100.00
7836;BME280;3963;42.658;23.298;2023-01-29T01:45:25;58121.41;;;-0.32;100.00
7836;BME280;3963;42.658;23.298;2023-01-29T01:47:57;58107.72;;;-0.45;100.00
7836;BME280;3963;42.658;23.298;2023-01-29T01:50:30;58090.81;;;-0.49;100.00
7836;BME280;3963;42.658;23.298;2023-01-29T01:53:04;58108.69;;;-0.47;100.00
7836;BME280;3963;42.658;23.298;2023-01-29T01:55:34;58082.31;;;-0.45;100.00
7836;BME280;3963;42.658;23.298;2023-01-29T01:58:07;58120.44;;;-0.31;100.00
7836;BME280;3963;42.658;23.298;2023-01-29T02:00:35;58164.47;;;-0.23;100.00
7836;BME280;3963;42.658;23.298;2023-01-29T02:03:04;58139.47;;;-0.39;100.00
7836;BME280;3963;42.658;23.298;2023-01-29T02:05:49;58115.44;;;-0.43;100.00
7836;BME280;3963;42.658;23.298;2023-01-29T02:08:43;58108.78;;;-0.44;100.00
7836;BME280;3963;42.658;23.298;2023-01-29T02:11:29;58137.16;;;-0.46;100.00
7836;BME280;3963;42.658;23.298;2023-01-29T02:13:56;58126.06;;;-0.45;100.00
7836;BME280;3963;42.658;23.298;2023-01-29T02:16:23;58123.00;;;-0.31;100.00
7836;BME280;3963;42.658;23.298;2023-01-29T02:18:52;58075.22;;;-0.45;100.00
7836;BME280;3963;42.658;23.298;2023-01-29T02:21:33;58159.63;;;-0.30;100.00
7836;BME280;3963;42.658;23.298;2023-01-29T02:24:31;58120.63;;;-0.40;100.00
7836;BME280;3963;42.658;23.298;2023-01-29T02:27:08;58111.06;;;-0.37;100.00
7836;BME280;3963;42.658;23.298;2023-01-29T02:29:48;58102.13;;;-0.31;100.00
7836;BME280;3963;42.658;23.298;2023-01-29T02:32:26;58176.63;;;-0.23;100.00
7836;BME280;3963;42.658;23.298;2023-01-29T02:35:10;58115.63;;;-0.23;100.00
7836;BME280;3963;42.658;23.298;2023-01-29T02:38:03;58095.38;;;-0.35;100.00
7836;BME280;3963;42.658;23.298;2023-01-29T02:40:39;58135.69;;;-0.31;100.00
7836;BME280;3963;42.658;23.298;2023-01-29T02:43:17;58136.84;;;-0.42;100.00
7836;BME280;3963;42.658;23.298;2023-01-29T02:45:53;58092.66;;;-0.40;100.00
7836;BME280;3963;42.658;23.298;2023-01-29T02:48:31;58144.69;;;-0.49;100.00
7836;BME280;3963;42.658;23.298;2023-01-29T02:51:04;58118.94;;;-0.44;100.00
7836;BME280;3963;42.658;23.298;2023-01-29T02:53:37;58119.28;;;-0.49;100.00
7836;BME280;3963;42.658;23.298;2023-01-29T02:56:09;58095.81;;;-0.52;100.00
7836;BME280;3963;42.658;23.298;2023-01-29T02:58:41;58107.03;;;-0.51;100.00
7836;BME280;3963;42.658;23.298;2023-01-29T03:01:12;58149.97;;;-0.44;100.00
7836;BME280;3963;42.658;23.298;2023-01-29T03:03:41;58124.31;;;-0.37;100.00
7836;BME280;3963;42.658;23.298;2023-01-29T03:06:14;58172.94;;;-0.41;100.00
7836;BME280;3963;42.658;23.298;2023-01-29T03:08:51;58138.84;;;-0.42;100.00
7836;BME280;3963;42.658;23.298;2023-01-29T03:11:19;58100.03;;;-0.48;100.00
7836;BME280;3963;42.658;23.298;2023-01-29T03:13:50;58147.94;;;-0.43;100.00
7836;BME280;3963;42.658;23.298;2023-01-29T03:16:23;58104.91;;;-0.38;100.00
7836;BME280;3963;42.658;23.298;2023-01-29T03:18:55;58090.28;;;-0.50;100.00
7836;BME280;3963;42.658;23.298;2023-01-29T03:21:28;58095.44;;;-0.47;100.00
7836;BME280;3963;42.658;23.298;2023-01-29T03:24:16;58117.00;;;-0.41;100.00
7836;BME280;3963;42.658;23.298;2023-01-29T03:27:04;58109.03;;;-0.51;100.00
7836;BME280;3963;42.658;23.298;2023-01-29T03:29:53;58099.13;;;-0.59;100.00
7836;BME280;3963;42.658;23.298;2023-01-29T03:32:41;58119.13;;;-0.39;100.00
7836;BME280;3963;42.658;23.298;2023-01-29T03:35:11;58104.13;;;-0.46;100.00
7836;BME280;3963;42.658;23.298;2023-01-29T03:37:45;58076.59;;;-0.63;100.00
7836;BME280;3963;42.658;23.298;2023-01-29T03:40:14;58125.75;;;-0.52;100.00
7836;BME280;3963;42.658;23.298;2023-01-29T03:42:49;58105.00;;;-0.50;100.00
7836;BME280;3963;42.658;23.298;2023-01-29T03:45:26;58148.22;;;-0.36;100.00
7836;BME280;3963;42.658;23.298;2023-01-29T03:48:03;58113.00;;;-0.40;100.00
7836;BME280;3963;42.658;23.298;2023-01-29T03:50:37;58111.66;;;-0.49;100.00
7836;BME280;3963;42.658;23.298;2023-01-29T03:53:16;58096.69;;;-0.41;100.00
7836;BME280;3963;42.658;23.298;2023-01-29T03:55:53;58113.44;;;-0.42;100.00
7836;BME280;3963;42.658;23.298;2023-01-29T03:58:31;58138.41;;;-0.40;100.00
7836;BME280;3963;42.658;23.298;2023-01-29T04:01:02;58122.63;;;-0.26;100.00
7836;BME280;3963;42.658;23.298;2023-01-29T04:03:34;58133.00;;;-0.21;100.00
7836;BME280;3963;42.658;23.298;2023-01-29T04:06:08;58153.69;;;-0.11;100.00
7836;BME280;3963;42.658;23.298;2023-01-29T04:08:48;58151.84;;;-0.20;100.00
7836;BME280;3963;42.658;23.298;2023-01-29T04:11:18;58160.34;;;-0.24;100.00
7836;BME280;3963;42.658;23.298;2023-01-29T04:13:46;58168.22;;;-0.31;100.00
7836;BME280;3963;42.658;23.298;2023-01-29T04:16:17;58117.13;;;-0.24;100.00
7836;BME280;3963;42.658;23.298;2023-01-29T04:18:48;58156.50;;;-0.18;100.00
7836;BME280;3963;42.658;23.298;2023-01-29T04:21:16;58153.03;;;-0.43;100.00
7836;BME280;3963;42.658;23.298;2023-01-29T04:23:44;58165.22;;;-0.29;100.00
7836;BME280;3963;42.658;23.298;2023-01-29T04:26:34;58098.44;;;-0.35;100.00
7836;BME280;3963;42.658;23.298;2023-01-29T04:29:20;58123.78;;;-0.37;100.00
7836;BME280;3963;42.658;23.298;2023-01-29T04:31:58;58144.47;;;-0.27;100.00
7836;BME280;3963;42.658;23.298;2023-01-29T04:34:36;58116.59;;;-0.25;100.00
7836;BME280;3963;42.658;23.298;2023-01-29T04:37:12;58151.22;;;-0.23;100.00
7836;BME280;3963;42.658;23.298;2023-01-29T04:39:48;58161.47;;;-0.21;100.00
7836;BME280;3963;42.658;23.298;2023-01-29T04:42:20;58171.31;;;-0.16;100.00
7836;BME280;3963;42.658;23.298;2023-01-29T04:44:55;58171.41;;;-0.14;100.00
7836;BME280;3963;42.658;23.298;2023-01-29T04:47:32;58165.44;;;-0.10;100.00
7836;BME280;3963;42.658;23.298;2023-01-29T04:50:11;58140.19;;;-0.19;100.00
7836;BME280;3963;42.658;23.298;2023-01-29T04:52:44;58118.09;;;-0.11;100.00
7836;BME280;3963;42.658;23.298;2023-01-29T04:55:19;58153.06;;;-0.14;100.00
7836;BME280;3963;42.658;23.298;2023-01-29T04:57:52;58172.19;;;-0.20;100.00
7836;BME280;3963;42.658;23.298;2023-01-29T05:00:23;58171.75;;;-0.18;100.00
7836;BME280;3963;42.658;23.298;2023-01-29T05:02:53;58129.75;;;-0.12;100.00
7836;BME280;3963;42.658;23.298;2023-01-29T05:05:23;58140.88;;;-0.14;100.00
7836;BME280;3963;42.658;23.298;2023-01-29T05:07:49;58118.88;;;-0.18;100.00
7836;BME280;3963;42.658;23.298;2023-01-29T05:10:18;58173.59;;;-0.09;100.00
7836;BME280;3963;42.658;23.298;2023-01-29T05:12:48;58145.72;;;-0.21;100.00
7836;BME280;3963;42.658;23.298;2023-01-29T05:15:22;58140.19;;;-0.19;100.00
7836;BME280;3963;42.658;23.298;2023-01-29T05:17:51;58138.59;;;-0.21;100.00
7836;BME280;3963;42.658;23.298;2023-01-29T05:20:30;58118.94;;;-0.30;100.00
7836;BME280;3963;42.658;23.298;2023-01-29T05:22:58;58147.03;;;-0.27;100.00
7836;BME280;3963;42.658;23.298;2023-01-29T05:25:27;58093.00;;;-0.45;100.00
7836;BME280;3963;42.658;23.298;2023-01-29T05:27:54;58113.16;;;-0.50;100.00
7836;BME280;3963;42.658;23.298;2023-01-29T05:30:30;58116.69;;;-0.37;100.00
7836;BME280;3963;42.658;23.298;2023-01-29T05:32:57;58110.81;;;-0.30;100.00
7836;BME280;3963;42.658;23.298;2023-01-29T05:35:24;58133.50;;;-0.35;100.00
7836;BME280;3963;42.658;23.298;2023-01-29T05:37:54;58116.84;;;-0.32;100.00
7836;BME280;3963;42.658;23.298;2023-01-29T05:40:21;58144.00;;;-0.40;100.00
7836;BME280;3963;42.658;23.298;2023-01-29T05:42:48;58111.44;;;-0.27;100.00
7836;BME280;3963;42.658;23.298;2023-01-29T05:45:16;58113.50;;;-0.40;100.00
7836;BME280;3963;42.658;23.298;2023-01-29T05:47:43;58121.47;;;-0.44;100.00
7836;BME280;3963;42.658;23.298;2023-01-29T05:50:10;58110.53;;;-0.38;100.00
7836;BME280;3963;42.658;23.298;2023-01-29T05:52:37;58134.38;;;-0.39;100.00
7836;BME280;3963;42.658;23.298;2023-01-29T05:55:07;58137.63;;;-0.34;100.00
7836;BME280;3963;42.658;23.298;2023-01-29T05:57:34;58106.97;;;-0.24;100.00
7836;BME280;3963;42.658;23.298;2023-01-29T06:00:01;58152.09;;;-0.27;100.00
7836;BME280;3963;42.658;23.298;2023-01-29T06:02:28;58138.16;;;-0.19;100.00
7836;BME280;3963;42.658;23.298;2023-01-29T06:04:55;58121.69;;;-0.25;100.00
7836;BME280;3963;42.658;23.298;2023-01-29T06:07:22;58148.59;;;-0.26;100.00
7836;BME280;3963;42.658;23.298;2023-01-29T06:09:49;58137.47;;;-0.24;100.00
7836;BME280;3963;42.658;23.298;2023-01-29T06:12:18;58169.22;;;-0.18;100.00
7836;BME280;3963;42.658;23.298;2023-01-29T06:14:44;58144.13;;;-0.08;100.00
7836;BME280;3963;42.658;23.298;2023-01-29T06:17:11;58142.56;;;-0.10;100.00
7836;BME280;3963;42.658;23.298;2023-01-29T06:19:38;58161.06;;;-0.04;100.00
7836;BME280;3963;42.658;23.298;2023-01-29T06:22:05;58133.00;;;-0.07;100.00
7836;BME280;3963;42.658;23.298;2023-01-29T06:24:32;58126.94;;;-0.05;100.00
7836;BME280;3963;42.658;23.298;2023-01-29T06:26:58;58188.78;;;0.03;100.00
7836;BME280;3963;42.658;23.298;2023-01-29T06:29:27;58168.69;;;-0.19;100.00
7836;BME280;3963;42.658;23.298;2023-01-29T06:31:53;58187.91;;;0.07;100.00
7836;BME280;3963;42.658;23.298;2023-01-29T06:34:20;58182.66;;;0.02;100.00
7836;BME280;3963;42.658;23.298;2023-01-29T06:36:47;58166.59;;;-0.06;100.00
7836;BME280;3963;42.658;23.298;2023-01-29T06:39:14;58192.13;;;-0.04;100.00
7836;BME280;3963;42.658;23.298;2023-01-29T06:41:40;58175.81;;;0.10;100.00
7836;BME280;3963;42.658;23.298;2023-01-29T06:44:07;58146.94;;;-0.01;100.00
7836;BME280;3963;42.658;23.298;2023-01-29T06:46:35;58187.28;;;0.04;100.00
7836;BME280;3963;42.658;23.298;2023-01-29T06:49:02;58170.09;;;0.07;100.00
7836;BME280;3963;42.658;23.298;2023-01-29T06:51:29;58186.84;;;0.06;100.00
7836;BME280;3963;42.658;23.298;2023-01-29T06:53:56;58144.84;;;0.12;100.00
7836;BME280;3963;42.658;23.298;2023-01-29T06:56:23;58205.00;;;0.02;100.00
7836;BME280;3963;42.658;23.298;2023-01-29T06:58:50;58188.53;;;0.10;100.00
7836;BME280;3963;42.658;23.298;2023-01-29T07:01:17;58186.19;;;0.30;100.00
7836;BME280;3963;42.658;23.298;2023-01-29T07:03:48;58235.84;;;0.38;100.00
7836;BME280;3963;42.658;23.298;2023-01-29T07:06:14;58146.34;;;0.40;100.00
7836;BME280;3963;42.658;23.298;2023-01-29T07:08:41;58218.66;;;0.41;100.00
7836;BME280;3963;42.658;23.298;2023-01-29T07:11:08;58214.34;;;0.35;100.00
7836;BME280;3963;42.658;23.298;2023-01-29T07:13:35;58199.59;;;0.21;100.00
7836;BME280;3963;42.658;23.298;2023-01-29T07:16:03;58223.22;;;0.26;100.00
7836;BME280;3963;42.658;23.298;2023-01-29T07:18:31;58195.13;;;0.24;100.00
7836;BME280;3963;42.658;23.298;2023-01-29T07:21:02;58232.94;;;0.28;100.00
7836;BME280;3963;42.658;23.298;2023-01-29T07:23:29;58167.31;;;0.14;100.00
7836;BME280;3963;42.658;23.298;2023-01-29T07:25:59;58197.38;;;0.16;100.00
7836;BME280;3963;42.658;23.298;2023-01-29T07:28:26;58166.50;;;0.06;100.00
7836;BME280;3963;42.658;23.298;2023-01-29T07:30:55;58148.28;;;0.08;100.00
7836;BME280;3963;42.658;23.298;2023-01-29T07:33:21;58182.81;;;-0.08;100.00
7836;BME280;3963;42.658;23.298;2023-01-29T07:35:48;58168.16;;;-0.05;100.00
7836;BME280;3963;42.658;23.298;2023-01-29T07:38:17;58158.59;;;-0.02;100.00
7836;BME280;3963;42.658;23.298;2023-01-29T07:40:46;58157.38;;;-0.08;100.00
7836;BME280;3963;42.658;23.298;2023-01-29T07:43:13;58183.25;;;0.05;100.00
7836;BME280;3963;42.658;23.298;2023-01-29T07:45:40;58196.69;;;0.25;100.00
7836;BME280;3963;42.658;23.298;2023-01-29T07:48:10;58201.16;;;0.08;100.00
7836;BME280;3963;42.658;23.298;2023-01-29T07:50:37;58201.94;;;0.16;100.00
7836;BME280;3963;42.658;23.298;2023-01-29T07:53:04;58156.25;;;0.18;100.00
7836;BME280;3963;42.658;23.298;2023-01-29T07:55:33;58207.31;;;0.23;100.00
7836;BME280;3963;42.658;23.298;2023-01-29T07:58:01;58232.50;;;0.45;100.00
7836;BME280;3963;42.658;23.298;2023-01-29T08:00:29;58263.59;;;0.45;100.00
7836;BME280;3963;42.658;23.298;2023-01-29T08:03:01;58247.44;;;0.49;100.00
7836;BME280;3963;42.658;23.298;2023-01-29T08:05:29;58219.53;;;0.37;100.00
7836;BME280;3963;42.658;23.298;2023-01-29T08:07:56;58214.00;;;0.39;100.00
7836;BME280;3963;42.658;23.298;2023-01-29T08:10:23;58224.53;;;0.49;100.00
7836;BME280;3963;42.658;23.298;2023-01-29T08:12:55;58198.09;;;0.36;100.00
7836;BME280;3963;42.658;23.298;2023-01-29T08:15:22;58229.00;;;0.46;100.00
7836;BME280;3963;42.658;23.298;2023-01-29T08:17:49;58232.34;;;0.40;100.00
7836;BME280;3963;42.658;23.298;2023-01-29T08:20:16;58206.09;;;0.46;100.00
7836;BME280;3963;42.658;23.298;2023-01-29T08:22:43;58231.94;;;0.57;100.00
7836;BME280;3963;42.658;23.298;2023-01-29T08:25:10;58216.72;;;0.44;100.00
7836;BME280;3963;42.658;23.298;2023-01-29T08:27:37;58211.13;;;0.44;100.00
7836;BME280;3963;42.658;23.298;2023-01-29T08:30:07;58198.47;;;0.46;100.00
7836;BME280;3963;42.658;23.298;2023-01-29T08:32:34;58209.41;;;0.25;100.00
7836;BME280;3963;42.658;23.298;2023-01-29T08:35:01;58205.66;;;0.19;100.00
7836;BME280;3963;42.658;23.298;2023-01-29T08:37:28;58162.22;;;-0.01;100.00
7836;BME280;3963;42.658;23.298;2023-01-29T08:39:55;58183.69;;;0.03;100.00
7836;BME280;3963;42.658;23.298;2023-01-29T08:42:21;58181.06;;;0.00;100.00
7836;BME280;3963;42.658;23.298;2023-01-29T08:44:48;58222.50;;;0.21;100.00
7836;BME280;3963;42.658;23.298;2023-01-29T08:47:17;58226.91;;;0.30;100.00
7836;BME280;3963;42.658;23.298;2023-01-29T08:49:43;58199.94;;;0.16;100.00
7836;BME280;3963;42.658;23.298;2023-01-29T08:52:10;58211.50;;;0.13;100.00
7836;BME280;3963;42.658;23.298;2023-01-29T08:54:37;58172.56;;;0.19;100.00
7836;BME280;3963;42.658;23.298;2023-01-29T08:57:04;58211.97;;;0.25;100.00
7836;BME280;3963;42.658;23.298;2023-01-29T08:59:31;58184.41;;;0.23;100.00
7836;BME280;3963;42.658;23.298;2023-01-29T09:01:58;58218.28;;;0.31;100.00
7836;BME280;3963;42.658;23.298;2023-01-29T09:04:26;58211.63;;;0.44;100.00
7836;BME280;3963;42.658;23.298;2023-01-29T09:06:53;58227.69;;;0.52;100.00
7836;BME280;3963;42.658;23.298;2023-01-29T09:09:20;58252.38;;;0.44;100.00
7836;BME280;3963;42.658;23.298;2023-01-29T09:11:47;58199.94;;;0.31;100.00
7836;BME280;3963;42.658;23.298;2023-01-29T09:14:13;58178.28;;;0.22;100.00
7836;BME280;3963;42.658;23.298;2023-01-29T09:16:40;58219.34;;;0.18;100.00
7836;BME280;3963;42.658;23.298;2023-01-29T09:19:07;58206.63;;;0.32;100.00
7836;BME280;3963;42.658;23.298;2023-01-29T09:21:35;58236.72;;;0.34;100.00
7836;BME280;3963;42.658;23.298;2023-01-29T09:24:02;58231.63;;;0.34;100.00
7836;BME280;3963;42.658;23.298;2023-01-29T09:26:29;58207.06;;;0.45;100.00
7836;BME280;3963;42.658;23.298;2023-01-29T09:28:56;58211.03;;;0.41;100.00
7836;BME280;3963;42.658;23.298;2023-01-29T09:31:22;58252.38;;;0.44;100.00
7836;BME280;3963;42.658;23.298;2023-01-29T09:33:49;58219.28;;;0.44;100.00
7836;BME280;3963;42.658;23.298;2023-01-29T09:36:16;58224.69;;;0.40;100.00
7836;BME280;3963;42.658;23.298;2023-01-29T09:38:44;58223.47;;;0.48;100.00
7836;BME280;3963;42.658;23.298;2023-01-29T09:41:23;58199.69;;;0.38;100.00
7836;BME280;3963;42.658;23.298;2023-01-29T09:43:57;58233.81;;;0.39;100.00
7836;BME280;3963;42.658;23.298;2023-01-29T09:46:32;58207.41;;;0.26;100.00
7836;BME280;3963;42.658;23.298;2023-01-29T09:49:03;58215.66;;;0.29;100.00
7836;BME280;3963;42.658;23.298;2023-01-29T09:51:38;58201.16;;;0.22;100.00
7836;BME280;3963;42.658;23.298;2023-01-29T09:54:15;58170.72;;;0.10;100.00
7836;BME280;3963;42.658;23.298;2023-01-29T09:56:44;58183.03;;;0.27;100.00
7836;BME280;3963;42.658;23.298;2023-01-29T09:59:12;58211.81;;;0.35;100.00
7836;BME280;3963;42.658;23.298;2023-01-29T10:01:48;58191.88;;;0.33;100.00
7836;BME280;3963;42.658;23.298;2023-01-29T10:04:38;58199.34;;;0.42;100.00
7836;BME280;3963;42.658;23.298;2023-01-29T10:10:21;58200.16;;;0.36;100.00
7836;BME280;3963;42.658;23.298;2023-01-29T10:13:05;58231.63;;;0.34;100.00
7836;BME280;3963;42.658;23.298;2023-01-29T10:15:47;58207.06;;;0.30;100.00
7836;BME280;3963;42.658;23.298;2023-01-29T10:18:32;58188.28;;;0.46;100.00
7836;BME280;3963;42.658;23.298;2023-01-29T10:21:14;58211.81;;;0.49;100.00
7836;BME280;3963;42.658;23.298;2023-01-29T10:23:46;58258.16;;;0.50;100.00
7836;BME280;3963;42.658;23.298;2023-01-29T10:26:15;58239.81;;;0.49;100.00
7836;BME280;3963;42.658;23.298;2023-01-29T10:28:44;58213.72;;;0.32;100.00
7836;BME280;3963;42.658;23.298;2023-01-29T10:31:17;58165.09;;;0.24;100.00
7836;BME280;3963;42.658;23.298;2023-01-29T10:33:48;58178.88;;;0.25;100.00
7836;BME280;3963;42.658;23.298;2023-01-29T10:36:18;58165.19;;;0.12;100.00
7836;BME280;3963;42.658;23.298;2023-01-29T10:38:48;58180.22;;;0.34;100.00
7836;BME280;3963;42.658;23.298;2023-01-29T10:41:29;58189.84;;;0.48;100.00
7836;BME280;3963;42.658;23.298;2023-01-29T10:44:07;58170.19;;;0.24;100.00
7836;BME280;3963;42.658;23.298;2023-01-29T10:46:47;58212.59;;;0.43;100.00
7836;BME280;3963;42.658;23.298;2023-01-29T10:49:27;58225.84;;;0.43;100.00
7836;BME280;3963;42.658;23.298;2023-01-29T10:52:08;58262.66;;;0.62;100.00
7836;BME280;3963;42.658;23.298;2023-01-29T10:54:48;58221.28;;;0.44;100.00
7836;BME280;3963;42.658;23.298;2023-01-29T10:57:32;58244.13;;;0.56;100.00
7836;BME280;3963;42.658;23.298;2023-01-29T11:00:06;58283.28;;;0.69;100.00
7836;BME280;3963;42.658;23.298;2023-01-29T11:02:42;58221.56;;;0.51;100.00
7836;BME280;3963;42.658;23.298;2023-01-29T11:05:18;58269.63;;;0.29;100.00
7836;BME280;3963;42.658;23.298;2023-01-29T11:07:47;58227.75;;;0.26;100.00
7836;BME280;3963;42.658;23.298;2023-01-29T11:10:16;58200.19;;;0.09;100.00
7836;BME280;3963;42.658;23.298;2023-01-29T11:12:49;58197.56;;;0.21;100.00
7836;BME280;3963;42.658;23.298;2023-01-29T11:15:19;58175.47;;;0.15;100.00
7836;BME280;3963;42.658;23.298;2023-01-29T11:18:09;58208.81;;;0.22;100.00
7836;BME280;3963;42.658;23.298;2023-01-29T11:20:39;58196.00;;;0.20;100.00
7836;BME280;3963;42.658;23.298;2023-01-29T11:23:24;58235.25;;;0.35;100.00
7836;BME280;3963;42.658;23.298;2023-01-29T11:25:51;58172.84;;;0.27;100.00
7836;BME280;3963;42.658;23.298;2023-01-29T11:28:35;58197.25;;;0.40;100.00
7836;BME280;3963;42.658;23.298;2023-01-29T11:31:02;58262.53;;;0.44;100.00
7836;BME280;3963;42.658;23.298;2023-01-29T11:33:29;58217.78;;;0.45;100.00
7836;BME280;3963;42.658;23.298;2023-01-29T11:35:56;58244.81;;;0.47;100.00
7836;BME280;3963;42.658;23.298;2023-01-29T11:38:25;58243.16;;;0.57;100.00
7836;BME280;3963;42.658;23.298;2023-01-29T11:40:53;58209.00;;;0.42;100.00
7836;BME280;3963;42.658;23.298;2023-01-29T11:43:30;58230.88;;;0.55;100.00
7836;BME280;3963;42.658;23.298;2023-01-29T11:46:00;58235.44;;;0.70;100.00
7836;BME280;3963;42.658;23.298;2023-01-29T11:48:41;58264.84;;;0.66;100.00
7836;BME280;3963;42.658;23.298;2023-01-29T11:51:10;58266.50;;;0.55;100.00
7836;BME280;3963;42.658;23.298;2023-01-29T11:53:40;58255.34;;;0.57;100.00
7836;BME280;3963;42.658;23.298;2023-01-29T11:56:22;58251.06;;;0.65;100.00
7836;BME280;3963;42.658;23.298;2023-01-29T11:58:51;58282.34;;;0.85;100.00
7836;BME280;3963;42.658;23.298;2023-01-29T12:01:31;58275.41;;;0.91;100.00
7836;BME280;3963;42.658;23.298;2023-01-29T12:03:59;58280.34;;;0.86;100.00
7836;BME280;3963;42.658;23.298;2023-01-29T12:06:32;58286.50;;;1.01;100.00
7836;BME280;3963;42.658;23.298;2023-01-29T12:09:02;58285.97;;;1.01;100.00
7836;BME280;3963;42.658;23.298;2023-01-29T12:11:34;58319.72;;;1.04;100.00
7836;BME280;3963;42.658;23.298;2023-01-29T12:14:04;58327.59;;;1.11;100.00
7836;BME280;3963;42.658;23.298;2023-01-29T12:16:37;58303.72;;;0.98;100.00
7836;BME280;3963;42.658;23.298;2023-01-29T12:19:12;58291.47;;;0.99;100.00
7836;BME280;3963;42.658;23.298;2023-01-29T12:21:45;58301.25;;;1.01;100.00
7836;BME280;3963;42.658;23.298;2023-01-29T12:24:24;58285.78;;;0.96;100.00
7836;BME280;3963;42.658;23.298;2023-01-29T12:27:01;58275.94;;;0.91;100.00
7836;BME280;3963;42.658;23.298;2023-01-29T12:29:39;58242.91;;;0.65;100.00
7836;BME280;3963;42.658;23.298;2023-01-29T12:32:19;58223.41;;;0.61;100.00
7836;BME280;3963;42.658;23.298;2023-01-29T12:34:54;58185.31;;;0.48;100.00
7836;BME280;3963;42.658;23.298;2023-01-29T12:37:27;58237.97;;;0.40;100.00
7836;BME280;3963;42.658;23.298;2023-01-29T12:39:59;58254.03;;;0.48;100.00
7836;BME280;3963;42.658;23.298;2023-01-29T12:42:26;58247.78;;;0.45;100.00
7836;BME280;3963;42.658;23.298;2023-01-29T12:44:56;58218.59;;;0.53;100.00
7836;BME280;3963;42.658;23.298;2023-01-29T12:47:29;58209.34;;;0.52;100.00
7836;BME280;3963;42.658;23.298;2023-01-29T12:50:02;58188.53;;;0.54;100.00
7836;BME280;3963;42.658;23.298;2023-01-29T12:52:37;58236.91;;;0.54;100.00
7836;BME280;3963;42.658;23.298;2023-01-29T12:55:10;58270.13;;;0.57;100.00
7836;BME280;3963;42.658;23.298;2023-01-29T12:57:43;58242.19;;;0.44;100.00
7836;BME280;3963;42.658;23.298;2023-01-29T13:00:13;58221.44;;;0.34;100.00
7836;BME280;3963;42.658;23.298;2023-01-29T13:02:49;58225.25;;;0.40;100.00
7836;BME280;3963;42.658;23.298;2023-01-29T13:05:20;58215.31;;;0.48;100.00
7836;BME280;3963;42.658;23.298;2023-01-29T13:07:53;58251.56;;;0.36;100.00
7836;BME280;3963;42.658;23.298;2023-01-29T13:10:24;58220.75;;;0.43;100.00
7836;BME280;3963;42.658;23.298;2023-01-29T13:12:57;58235.88;;;0.53;100.00
7836;BME280;3963;42.658;23.298;2023-01-29T13:15:29;58194.09;;;0.52;100.00
7836;BME280;3963;42.658;23.298;2023-01-29T13:18:15;58244.59;;;0.69;100.00
7836;BME280;3963;42.658;23.298;2023-01-29T13:20:47;58247.13;;;0.69;100.00
7836;BME280;3963;42.658;23.298;2023-01-29T13:23:19;58252.22;;;0.69;100.00
7836;BME280;3963;42.658;23.298;2023-01-29T13:25:49;58279.44;;;0.90;100.00
7836;BME280;3963;42.658;23.298;2023-01-29T13:28:17;58295.97;;;0.96;100.00
7836;BME280;3963;42.658;23.298;2023-01-29T13:30:45;58299.31;;;0.89;100.00